Time;durP1;ratioP1;P1;durP2;ratioP2;P2;SDS_P1;SDS_P2;PMS_P1;PMS_P2;Temp;Humidity;BMP_temperature;BMP_pressure;BME280_temperature;BME280_humidity;BME280_pressure;Samples;Min_cycle;Max_cycle;Signal;HPM_P1;HPM_P2
2022/11/25 00:01:50;;;;;;;15.90;11.52;;;3.90;99.90;;;;;;6002400;23;20758;-74
2022/11/25 00:04:17;;;;;;;15.38;11.40;;;3.90;99.90;;;;;;6002017;23;20806;-74
2022/11/25 00:06:44;;;;;;;13.50;10.60;;;3.90;99.90;;;;;;6004473;23;20277;-74
2022/11/25 00:09:12;;;;;;;13.40;10.85;;;3.90;99.90;;;;;;6003636;23;20655;-73
2022/11/25 00:11:42;;;;;;;15.98;11.20;;;3.80;99.90;;;;;;6004287;23;20283;-73
2022/11/25 00:14:13;;;;;;;14.15;10.60;;;3.70;99.90;;;;;;6001511;23;20197;-73
2022/11/25 00:16:41;;;;;;;16.42;11.65;;;3.70;99.90;;;;;;6003732;23;20201;-73
2022/11/25 00:19:10;;;;;;;12.73;11.15;;;3.80;99.90;;;;;;6004488;23;20235;-74
2022/11/25 00:21:37;;;;;;;17.90;12.35;;;3.80;99.90;;;;;;6004435;23;20208;-74
2022/11/25 00:24:07;;;;;;;17.17;11.95;;;3.80;99.90;;;;;;6005043;23;20271;-74
2022/11/25 00:26:36;;;;;;;16.73;11.23;;;3.80;99.90;;;;;;6006098;23;20292;-73
2022/11/25 00:29:07;;;;;;;17.40;11.85;;;3.80;99.90;;;;;;6012850;23;20208;-73
2022/11/25 00:31:36;;;;;;;17.75;12.15;;;3.80;99.90;;;;;;6005069;23;20280;-73
2022/11/25 00:34:03;;;;;;;16.73;12.10;;;3.70;99.90;;;;;;6003905;23;20576;-74
2022/11/25 00:36:32;;;;;;;13.27;11.88;;;3.80;99.90;;;;;;6005804;23;20508;-74
2022/11/25 00:39:01;;;;;;;17.23;12.35;;;3.70;99.90;;;;;;6005930;23;20225;-74
2022/11/25 00:47:02;;;;;;;17.77;12.10;;;3.60;99.90;;;;;;6004887;23;20197;-74
2022/11/25 00:49:30;;;;;;;15.23;12.00;;;3.60;99.90;;;;;;6003434;23;20733;-73
2022/11/25 00:51:57;;;;;;;14.60;12.30;;;3.60;99.90;;;;;;6004539;23;20556;-73
2022/11/25 00:54:25;;;;;;;14.55;11.10;;;3.60;99.90;;;;;;6003929;23;20606;-73
2022/11/25 00:56:52;;;;;;;15.15;11.90;;;3.60;99.90;;;;;;6002548;23;20221;-74
2022/11/25 00:59:22;;;;;;;14.07;12.65;;;3.60;99.90;;;;;;6002308;23;20204;-73
2022/11/25 01:01:51;;;;;;;16.17;11.43;;;3.60;99.90;;;;;;6003629;23;20208;-74
2022/11/25 01:04:19;;;;;;;15.77;13.13;;;3.60;99.90;;;;;;6003698;23;20295;-73
2022/11/25 01:06:46;;;;;;;14.00;11.88;;;3.50;99.90;;;;;;6003634;23;20203;-73
2022/11/25 01:09:13;;;;;;;12.95;11.48;;;3.50;99.90;;;;;;6003681;23;20633;-73
2022/11/25 01:11:41;;;;;;;15.00;11.85;;;3.50;99.90;;;;;;6002712;23;20733;-74
2022/11/25 01:14:09;;;;;;;18.60;12.88;;;3.50;99.90;;;;;;6001738;23;20200;-73
2022/11/25 01:16:37;;;;;;;17.77;11.25;;;3.60;99.90;;;;;;6000141;23;20274;-73
2022/11/25 01:19:05;;;;;;;13.93;11.63;;;3.60;99.90;;;;;;6004433;23;20231;-73
2022/11/25 01:21:33;;;;;;;14.10;11.23;;;3.50;99.90;;;;;;6002723;23;20195;-73
2022/11/25 01:24:02;;;;;;;18.45;12.27;;;3.50;99.90;;;;;;6004251;23;20261;-73
2022/11/25 01:26:30;;;;;;;14.57;11.00;;;3.50;99.90;;;;;;6003043;23;20337;-73
2022/11/25 01:29:00;;;;;;;15.55;12.45;;;3.50;99.90;;;;;;6004476;23;20200;-73
2022/11/25 01:31:29;;;;;;;22.58;12.27;;;3.50;99.90;;;;;;6002319;23;20261;-73
2022/11/25 01:34:03;;;;;;;13.93;11.77;;;3.50;99.90;;;;;;6004337;23;20191;-73
2022/11/25 01:36:30;;;;;;;15.85;11.00;;;3.50;99.90;;;;;;6001657;23;20207;-73
2022/11/25 01:38:59;;;;;;;14.90;11.60;;;3.50;99.90;;;;;;6003847;23;20940;-73
2022/11/25 01:41:28;;;;;;;13.02;10.75;;;3.60;99.90;;;;;;6002985;23;20284;-73
2022/11/25 01:44:08;;;;;;;18.27;12.27;;;3.60;99.90;;;;;;6001544;23;20217;-74
2022/11/25 01:47:00;;;;;;;14.57;10.77;;;3.60;99.90;;;;;;6000933;23;20278;-74
2022/11/25 01:49:37;;;;;;;16.80;11.27;;;3.60;99.90;;;;;;6003302;23;20248;-73
2022/11/25 01:52:12;;;;;;;13.52;11.52;;;3.60;99.90;;;;;;5983489;23;20204;-74
2022/11/25 01:54:44;;;;;;;13.27;10.70;;;3.60;99.90;;;;;;6002889;23;20199;-73
2022/11/25 01:57:18;;;;;;;12.20;10.82;;;3.60;99.90;;;;;;6003232;23;20221;-73
2022/11/25 01:59:50;;;;;;;11.43;10.23;;;3.60;99.90;;;;;;6003466;23;20196;-74
2022/11/25 02:02:18;;;;;;;13.65;10.23;;;3.60;99.90;;;;;;6004403;23;20223;-74
2022/11/25 02:04:48;;;;;;;14.50;10.00;;;3.60;99.90;;;;;;6003608;23;20250;-74
2022/11/25 02:07:20;;;;;;;13.25;9.52;;;3.70;99.90;;;;;;5983821;23;20268;-73
2022/11/25 02:09:49;;;;;;;13.00;10.13;;;3.60;99.90;;;;;;6002642;23;20286;-73
2022/11/25 02:12:18;;;;;;;12.43;10.82;;;3.70;99.90;;;;;;6002013;23;20289;-73
2022/11/25 02:14:46;;;;;;;18.80;10.35;;;3.70;99.90;;;;;;6004145;23;20192;-73
2022/11/25 02:17:14;;;;;;;14.10;9.82;;;3.70;99.90;;;;;;5999027;23;20271;-73
2022/11/25 02:19:56;;;;;;;13.50;10.38;;;3.70;99.90;;;;;;5990382;23;20233;-73
2022/11/25 02:22:32;;;;;;;12.23;10.10;;;3.70;99.90;;;;;;5986554;23;20291;-73
2022/11/25 02:25:09;;;;;;;13.27;9.40;;;3.70;99.90;;;;;;5999797;23;20615;-74
2022/11/25 02:27:37;;;;;;;11.27;9.52;;;3.70;99.90;;;;;;5986511;23;20195;-73
2022/11/25 02:30:04;;;;;;;11.75;10.15;;;3.70;99.90;;;;;;6003849;23;20200;-73
2022/11/25 02:32:31;;;;;;;14.82;10.80;;;3.80;99.90;;;;;;6004351;23;20194;-73
2022/11/25 02:34:58;;;;;;;13.98;9.77;;;3.80;99.90;;;;;;6004826;23;20284;-73
2022/11/25 02:37:25;;;;;;;12.15;9.27;;;3.70;99.90;;;;;;6014556;23;20200;-73
2022/11/25 02:39:54;;;;;;;11.63;10.20;;;3.80;99.90;;;;;;6005621;23;20190;-73
2022/11/25 02:42:24;;;;;;;10.85;9.75;;;3.80;99.90;;;;;;6004434;23;20527;-73
2022/11/25 02:44:51;;;;;;;12.88;10.77;;;3.80;99.90;;;;;;6002287;23;20301;-73
2022/11/25 02:47:18;;;;;;;15.13;10.25;;;3.80;99.90;;;;;;6004895;23;20203;-73
2022/11/25 02:49:45;;;;;;;11.45;9.45;;;3.70;99.90;;;;;;6004268;23;20264;-74
2022/11/25 02:52:12;;;;;;;11.38;10.15;;;3.80;99.90;;;;;;6002602;23;20271;-74
2022/11/25 02:54:39;;;;;;;13.77;10.60;;;3.80;99.90;;;;;;6004599;23;20204;-73
2022/11/25 02:57:07;;;;;;;13.23;9.02;;;3.80;99.90;;;;;;6005377;23;20278;-73
2022/11/25 02:59:35;;;;;;;10.98;8.60;;;3.80;99.90;;;;;;6003137;23;20197;-74
2022/11/25 03:02:03;;;;;;;11.55;9.00;;;3.80;99.90;;;;;;6002436;23;20316;-73
2022/11/25 03:04:30;;;;;;;10.15;8.63;;;3.90;99.90;;;;;;6002084;23;20221;-73
2022/11/25 03:06:57;;;;;;;12.88;9.68;;;3.90;99.90;;;;;;6010524;23;20204;-73
2022/11/25 03:09:26;;;;;;;12.23;8.90;;;3.90;99.90;;;;;;6015555;23;20655;-74
2022/11/25 03:14:40;;;;;;;13.40;9.02;;;3.90;99.90;;;;;;6005780;23;20617;-73
2022/11/25 03:17:07;;;;;;;12.27;10.00;;;3.90;99.90;;;;;;6006892;23;20204;-73
2022/11/25 03:19:34;;;;;;;11.38;8.32;;;3.90;99.90;;;;;;5986901;23;20350;-73
2022/11/25 03:22:01;;;;;;;10.82;9.10;;;3.90;99.90;;;;;;6002831;23;20205;-73
2022/11/25 03:24:29;;;;;;;13.43;9.00;;;3.90;99.90;;;;;;5996892;23;20256;-73
2022/11/25 03:26:56;;;;;;;14.65;9.55;;;3.90;99.90;;;;;;6004679;23;20229;-73
2022/11/25 03:29:23;;;;;;;11.05;9.40;;;3.80;99.90;;;;;;6003649;23;20204;-73
2022/11/25 03:31:51;;;;;;;11.02;8.90;;;3.90;99.90;;;;;;6003816;23;20284;-73
2022/11/25 03:34:18;;;;;;;12.85;9.25;;;3.80;99.90;;;;;;6005150;23;20202;-73
2022/11/25 03:36:46;;;;;;;10.95;9.30;;;3.80;99.90;;;;;;6004059;23;20283;-73
2022/11/25 03:39:13;;;;;;;13.23;9.65;;;3.80;99.90;;;;;;6004412;23;20297;-73
2022/11/25 03:41:40;;;;;;;11.18;9.55;;;3.80;99.90;;;;;;5999142;23;20196;-73
2022/11/25 03:44:07;;;;;;;12.32;9.88;;;3.80;99.90;;;;;;6004321;23;20225;-73
2022/11/25 03:46:34;;;;;;;11.43;9.45;;;3.70;99.90;;;;;;6005353;23;20648;-74
2022/11/25 03:49:03;;;;;;;12.98;10.35;;;3.70;99.90;;;;;;6004147;23;20280;-73
2022/11/25 03:51:31;;;;;;;13.43;10.57;;;3.70;99.90;;;;;;6002175;23;20234;-73
2022/11/25 03:53:58;;;;;;;11.30;10.05;;;3.70;99.90;;;;;;6001200;23;20193;-74
2022/11/25 03:56:25;;;;;;;16.00;11.10;;;3.70;99.90;;;;;;6004636;23;20228;-73
2022/11/25 03:58:53;;;;;;;12.98;10.25;;;3.60;99.90;;;;;;6004117;23;20197;-73
2022/11/25 04:01:21;;;;;;;10.05;9.13;;;3.60;99.90;;;;;;6005002;23;20312;-73
2022/11/25 04:03:48;;;;;;;10.98;9.80;;;3.50;99.90;;;;;;6003824;23;20217;-73
2022/11/25 04:06:18;;;;;;;14.27;9.65;;;3.50;99.90;;;;;;6004082;23;20652;-73
2022/11/25 04:08:46;;;;;;;12.70;10.50;;;3.40;99.90;;;;;;6004014;23;20242;-73
2022/11/25 04:11:14;;;;;;;14.15;10.02;;;3.40;99.90;;;;;;6005008;23;20205;-73
2022/11/25 04:13:40;;;;;;;12.75;10.35;;;3.40;99.90;;;;;;6003985;23;20193;-73
2022/11/25 04:16:15;;;;;;;11.88;10.25;;;3.40;99.90;;;;;;6005111;23;20193;-73
2022/11/25 04:18:42;;;;;;;11.45;9.85;;;3.30;99.90;;;;;;6000081;23;20222;-73
2022/11/25 04:21:09;;;;;;;12.68;10.88;;;3.30;99.90;;;;;;6002749;23;20205;-73
2022/11/25 04:23:38;;;;;;;14.82;10.10;;;3.20;99.90;;;;;;6004619;23;20285;-73
2022/11/25 04:26:05;;;;;;;13.57;10.88;;;3.20;99.90;;;;;;6004655;23;20198;-73
2022/11/25 04:28:34;;;;;;;12.52;10.32;;;3.20;99.90;;;;;;6004803;23;20220;-74
2022/11/25 04:31:05;;;;;;;12.43;11.10;;;3.20;99.90;;;;;;6002625;23;20196;-74
2022/11/25 04:33:32;;;;;;;11.65;10.35;;;3.20;99.90;;;;;;6003217;23;20296;-74
2022/11/25 04:35:59;;;;;;;12.82;10.07;;;3.20;99.90;;;;;;6004345;23;20201;-74
2022/11/25 04:38:26;;;;;;;13.02;11.43;;;3.20;99.90;;;;;;6005428;23;20207;-73
2022/11/25 04:40:55;;;;;;;14.27;11.27;;;3.20;99.90;;;;;;6003696;23;20654;-73
2022/11/25 04:43:22;;;;;;;11.35;10.20;;;3.20;99.90;;;;;;6002274;23;20203;-74
2022/11/25 04:45:49;;;;;;;15.07;11.48;;;3.10;99.90;;;;;;6002287;23;20247;-73
2022/11/25 04:48:17;;;;;;;13.32;11.60;;;3.20;99.90;;;;;;5999999;23;20225;-73
2022/11/25 04:50:44;;;;;;;15.40;10.98;;;3.20;99.90;;;;;;6004256;23;20207;-73
2022/11/25 04:53:11;;;;;;;13.43;11.10;;;3.20;99.90;;;;;;6002335;23;20201;-73
2022/11/25 04:55:39;;;;;;;15.57;12.10;;;3.20;99.90;;;;;;6003449;23;20220;-73
2022/11/25 04:58:07;;;;;;;15.07;10.55;;;3.20;99.90;;;;;;6004430;23;20279;-73
2022/11/25 05:00:33;;;;;;;12.70;11.40;;;3.20;99.90;;;;;;6000208;23;20234;-73
2022/11/25 05:03:00;;;;;;;12.70;11.35;;;3.20;99.90;;;;;;6003052;23;20200;-73
2022/11/25 05:05:28;;;;;;;13.00;11.65;;;3.30;99.90;;;;;;6002415;23;20309;-73
2022/11/25 05:07:55;;;;;;;13.23;11.88;;;3.30;99.90;;;;;;6002725;23;20202;-73
2022/11/25 05:10:23;;;;;;;15.23;10.95;;;3.20;99.90;;;;;;6002428;23;20211;-73
2022/11/25 05:12:50;;;;;;;11.52;10.32;;;3.20;99.90;;;;;;6002580;23;20258;-73
2022/11/25 05:15:18;;;;;;;18.58;10.80;;;3.20;99.90;;;;;;6003495;23;20199;-73
2022/11/25 05:17:45;;;;;;;13.02;11.60;;;3.20;99.90;;;;;;6004282;23;20374;-73
2022/11/25 05:20:13;;;;;;;14.25;11.30;;;3.20;99.90;;;;;;6000124;23;20229;-73
2022/11/25 05:22:41;;;;;;;13.25;11.90;;;3.20;99.90;;;;;;5998251;23;20222;-73
2022/11/25 05:25:09;;;;;;;16.90;12.20;;;3.20;99.90;;;;;;6003224;23;20215;-73
2022/11/25 05:27:36;;;;;;;13.30;11.90;;;3.30;99.90;;;;;;6001954;23;20201;-73
2022/11/25 05:30:05;;;;;;;15.68;12.57;;;3.30;99.90;;;;;;6002818;23;20225;-73
2022/11/25 05:32:33;;;;;;;13.45;11.23;;;3.30;99.90;;;;;;6003666;23;20199;-73
2022/11/25 05:35:02;;;;;;;12.60;11.23;;;3.30;99.90;;;;;;6003266;23;20209;-73
2022/11/25 05:37:29;;;;;;;14.60;11.55;;;3.40;99.90;;;;;;5995341;23;20206;-73
2022/11/25 05:39:57;;;;;;;11.90;10.70;;;3.40;99.90;;;;;;5989814;23;20284;-74
2022/11/25 05:42:24;;;;;;;13.18;11.70;;;3.40;99.90;;;;;;6002978;23;20652;-73
2022/11/25 05:44:51;;;;;;;11.68;10.45;;;3.40;99.90;;;;;;6002845;23;20225;-73
2022/11/25 05:47:18;;;;;;;14.43;10.25;;;3.40;99.90;;;;;;6002509;23;20635;-73
2022/11/25 05:49:47;;;;;;;12.55;11.15;;;3.40;99.90;;;;;;6012278;23;20207;-73
2022/11/25 05:52:14;;;;;;;13.18;11.70;;;3.40;99.90;;;;;;6002379;23;20238;-73
2022/11/25 05:54:42;;;;;;;14.50;10.52;;;3.40;99.90;;;;;;5998672;23;20191;-73
2022/11/25 05:57:10;;;;;;;12.15;10.15;;;3.40;99.90;;;;;;6004390;23;20222;-73
2022/11/25 05:59:37;;;;;;;11.82;9.82;;;3.40;99.90;;;;;;6001909;23;20217;-73
2022/11/25 06:02:04;;;;;;;11.27;10.05;;;3.40;99.90;;;;;;5999853;23;20201;-73
2022/11/25 06:04:32;;;;;;;13.88;11.70;;;3.40;99.90;;;;;;5989605;23;20235;-73
2022/11/25 06:07:00;;;;;;;11.32;10.15;;;3.40;99.90;;;;;;5992186;23;20209;-73
2022/11/25 06:09:28;;;;;;;13.18;10.05;;;3.40;99.90;;;;;;5998171;23;20276;-73
2022/11/25 06:11:55;;;;;;;11.05;9.95;;;3.30;99.90;;;;;;6001805;23;20192;-74
2022/11/25 06:14:22;;;;;;;12.68;10.82;;;3.30;99.90;;;;;;6003205;23;20201;-74
2022/11/25 06:16:49;;;;;;;13.38;11.48;;;3.30;99.90;;;;;;6000860;23;20248;-74
2022/11/25 06:19:16;;;;;;;11.60;10.05;;;3.30;99.90;;;;;;6003455;23;20197;-74
2022/11/25 06:21:44;;;;;;;15.05;11.13;;;3.20;99.90;;;;;;6000817;23;20225;-74
2022/11/25 06:24:13;;;;;;;13.85;10.55;;;3.20;99.90;;;;;;6000064;23;20200;-75
2022/11/25 06:26:40;;;;;;;13.77;10.48;;;3.20;99.90;;;;;;5997198;23;20703;-74
2022/11/25 06:29:07;;;;;;;11.48;10.20;;;3.20;99.90;;;;;;6001384;23;20643;-74
2022/11/25 06:31:35;;;;;;;12.50;10.35;;;3.20;99.90;;;;;;6004280;23;20204;-74
2022/11/25 06:34:05;;;;;;;14.77;11.05;;;3.10;99.90;;;;;;6002210;23;20197;-74
2022/11/25 06:36:32;;;;;;;14.75;10.95;;;3.10;99.90;;;;;;5997575;23;20715;-74
2022/11/25 06:39:00;;;;;;;14.85;10.95;;;3.10;99.90;;;;;;5999696;23;20194;-75
2022/11/25 06:41:29;;;;;;;17.05;11.90;;;3.00;99.90;;;;;;5998480;23;20196;-74
2022/11/25 06:43:56;;;;;;;12.63;11.43;;;3.00;99.90;;;;;;5998619;23;20543;-74
2022/11/25 06:46:24;;;;;;;13.18;11.88;;;3.00;99.90;;;;;;5998876;23;20291;-74
2022/11/25 06:48:51;;;;;;;13.88;12.00;;;3.00;99.90;;;;;;5992369;23;20267;-74
2022/11/25 06:51:18;;;;;;;15.20;11.90;;;3.00;99.90;;;;;;6003905;23;20230;-74
2022/11/25 06:53:47;;;;;;;13.15;11.77;;;3.00;99.90;;;;;;6003680;23;20358;-74
2022/11/25 06:56:16;;;;;;;16.67;12.25;;;3.00;99.90;;;;;;6002982;23;20199;-74
2022/11/25 06:58:46;;;;;;;13.82;11.93;;;3.00;99.90;;;;;;6000535;23;20559;-74
2022/11/25 07:01:15;;;;;;;14.40;12.15;;;2.90;99.90;;;;;;5995736;23;20211;-74
2022/11/25 07:03:43;;;;;;;17.00;11.80;;;2.90;99.90;;;;;;6003179;23;20224;-75
2022/11/25 07:06:12;;;;;;;12.88;10.95;;;2.90;99.90;;;;;;5989143;23;20269;-74
2022/11/25 07:08:40;;;;;;;13.18;10.77;;;2.90;99.90;;;;;;6001400;23;20390;-74
2022/11/25 07:11:10;;;;;;;15.00;11.75;;;3.00;99.90;;;;;;6003066;23;20193;-74
2022/11/25 07:13:37;;;;;;;15.00;11.10;;;3.00;99.90;;;;;;6003335;23;20190;-75
2022/11/25 07:16:07;;;;;;;14.10;12.00;;;3.10;99.90;;;;;;5999199;23;20202;-74
2022/11/25 07:18:37;;;;;;;16.73;11.15;;;3.10;99.90;;;;;;6002607;23;20270;-74
2022/11/25 07:21:06;;;;;;;12.25;10.85;;;3.10;99.90;;;;;;6002656;23;20606;-74
2022/11/25 07:23:33;;;;;;;13.55;12.02;;;3.20;99.90;;;;;;6000166;23;20222;-74
2022/11/25 07:26:05;;;;;;;11.63;10.38;;;3.20;99.90;;;;;;5995218;23;20210;-75
2022/11/25 07:28:32;;;;;;;15.52;12.77;;;3.20;99.90;;;;;;5996972;23;20194;-74
2022/11/25 07:31:07;;;;;;;14.45;10.82;;;3.30;99.90;;;;;;5997531;23;20537;-74
2022/11/25 07:33:35;;;;;;;11.95;10.65;;;3.40;99.90;;;;;;5996359;23;20834;-74
2022/11/25 07:36:04;;;;;;;13.43;11.95;;;3.40;99.90;;;;;;5995269;23;20245;-75
2022/11/25 07:38:32;;;;;;;14.10;11.55;;;3.40;99.90;;;;;;6001396;23;20253;-75
2022/11/25 07:41:05;;;;;;;13.00;10.27;;;3.50;99.90;;;;;;5996903;23;20206;-74
2022/11/25 07:43:33;;;;;;;13.85;11.43;;;3.50;99.90;;;;;;6002806;23;20268;-74
2022/11/25 07:46:11;;;;;;;12.35;11.05;;;3.60;99.90;;;;;;6000963;23;20228;-74
2022/11/25 07:48:38;;;;;;;12.43;10.60;;;3.60;99.90;;;;;;6006887;23;20281;-74
2022/11/25 07:51:13;;;;;;;13.57;11.60;;;3.60;99.90;;;;;;6009466;23;20191;-74
2022/11/25 07:53:40;;;;;;;11.80;10.35;;;3.60;99.90;;;;;;6002171;23;20207;-74
2022/11/25 07:56:08;;;;;;;14.75;10.73;;;3.70;99.90;;;;;;6002996;23;20210;-75
2022/11/25 07:58:35;;;;;;;14.60;11.65;;;3.70;99.90;;;;;;5997889;23;20268;-75
2022/11/25 08:01:02;;;;;;;11.63;10.43;;;3.70;99.90;;;;;;5994142;23;20198;-74
2022/11/25 08:03:32;;;;;;;15.57;12.27;;;3.80;99.90;;;;;;6002389;23;20213;-75
2022/11/25 08:06:00;;;;;;;16.55;11.32;;;3.80;99.90;;;;;;5999244;23;20210;-74
2022/11/25 08:08:29;;;;;;;12.75;10.55;;;3.90;99.90;;;;;;5999171;23;20276;-75
2022/11/25 08:10:57;;;;;;;13.80;10.50;;;3.90;99.90;;;;;;6001643;23;20240;-75
2022/11/25 08:13:24;;;;;;;12.05;10.57;;;4.00;99.90;;;;;;5998312;23;20189;-74
2022/11/25 08:15:51;;;;;;;12.25;9.70;;;4.00;99.90;;;;;;5998081;23;20291;-75
2022/11/25 08:18:19;;;;;;;14.73;10.93;;;4.10;99.90;;;;;;6003358;23;20219;-75
2022/11/25 08:20:48;;;;;;;12.30;9.65;;;4.10;99.90;;;;;;6002531;23;20190;-75
2022/11/25 08:23:14;;;;;;;14.23;9.23;;;4.20;99.90;;;;;;6002721;23;20275;-74
2022/11/25 08:25:43;;;;;;;14.05;9.45;;;4.20;99.90;;;;;;5997151;23;20241;-75
2022/11/25 08:28:10;;;;;;;12.95;9.73;;;4.30;99.90;;;;;;5999084;23;20217;-75
2022/11/25 08:30:37;;;;;;;10.23;9.02;;;4.40;99.90;;;;;;6001305;23;20194;-74
2022/11/25 08:33:06;;;;;;;12.80;8.60;;;4.40;99.90;;;;;;6012969;23;20251;-75
2022/11/25 08:35:36;;;;;;;12.95;8.30;;;4.50;99.90;;;;;;6014988;23;20202;-75
2022/11/25 08:38:06;;;;;;;10.68;9.52;;;4.60;99.90;;;;;;6002323;23;20190;-74
2022/11/25 08:40:37;;;;;;;13.68;9.95;;;4.60;99.90;;;;;;6003394;23;20539;-75
2022/11/25 08:43:04;;;;;;;10.25;9.23;;;4.70;99.90;;;;;;6003656;23;20206;-75
2022/11/25 08:45:32;;;;;;;14.65;10.32;;;4.70;99.90;;;;;;6002491;23;20267;-75
2022/11/25 08:48:00;;;;;;;12.15;10.60;;;4.70;99.90;;;;;;6002725;23;20196;-75
2022/11/25 08:50:27;;;;;;;13.50;10.32;;;4.70;99.90;;;;;;6003518;23;20206;-75
2022/11/25 08:52:54;;;;;;;11.07;9.88;;;4.80;99.90;;;;;;6003083;23;20679;-75
2022/11/25 08:55:28;;;;;;;10.20;9.20;;;4.80;99.90;;;;;;6002469;23;20201;-74
2022/11/25 08:57:55;;;;;;;11.35;10.18;;;4.80;99.90;;;;;;6003193;23;20194;-75
2022/11/25 09:00:23;;;;;;;10.40;9.40;;;4.80;99.90;;;;;;6000668;23;20245;-75
2022/11/25 09:02:49;;;;;;;13.48;10.15;;;4.90;99.90;;;;;;6000012;23;20317;-75
2022/11/25 09:05:17;;;;;;;14.45;8.98;;;4.90;99.90;;;;;;6002609;23;20214;-75
2022/11/25 09:07:45;;;;;;;12.35;9.10;;;5.00;99.90;;;;;;6003961;23;20269;-75
2022/11/25 09:10:15;;;;;;;12.30;9.20;;;5.10;99.90;;;;;;6002317;23;20268;-75
2022/11/25 09:12:43;;;;;;;12.48;8.25;;;5.20;99.90;;;;;;6009779;23;20229;-74
2022/11/25 09:15:12;;;;;;;10.52;8.18;;;5.50;99.90;;;;;;6002696;23;20193;-75
2022/11/25 09:17:39;;;;;;;8.48;7.13;;;6.00;99.90;;;;;;6000959;23;20613;-74
2022/11/25 09:20:07;;;;;;;10.82;7.53;;;6.60;99.90;;;;;;5998542;23;20193;-75
2022/11/25 09:22:35;;;;;;;7.75;6.68;;;7.10;99.90;;;;;;5999976;23;20287;-75
2022/11/25 09:25:02;;;;;;;9.43;6.95;;;7.60;99.90;;;;;;5997454;23;20205;-75
2022/11/25 09:27:30;;;;;;;7.05;6.35;;;8.20;99.90;;;;;;6001496;23;20200;-75
2022/11/25 09:29:59;;;;;;;8.93;6.65;;;8.70;99.90;;;;;;6003736;23;20212;-75
2022/11/25 09:32:26;;;;;;;8.85;6.60;;;8.80;99.90;;;;;;5997285;23;20192;-75
2022/11/25 09:34:53;;;;;;;9.60;6.57;;;8.60;99.90;;;;;;6001255;23;20270;-75
2022/11/25 09:37:22;;;;;;;8.32;6.50;;;8.30;99.90;;;;;;6002875;23;20254;-75
2022/11/25 09:39:51;;;;;;;9.23;7.00;;;8.10;99.90;;;;;;6000371;23;20263;-75
2022/11/25 09:48:21;;;;;;;8.18;6.90;;;7.60;99.90;;;;;;6002249;23;20196;-75
2022/11/25 09:50:59;;;;;;;7.80;7.00;;;7.50;99.90;;;;;;5977678;23;20195;-75
2022/11/25 09:53:38;;;;;;;8.23;7.30;;;7.40;99.90;;;;;;6001240;23;20661;-74
2022/11/25 09:56:14;;;;;;;8.70;6.53;;;7.30;99.90;;;;;;5985824;23;20301;-75
2022/11/25 09:58:51;;;;;;;8.88;7.03;;;7.30;99.90;;;;;;6003583;23;20278;-75
2022/11/25 10:01:26;;;;;;;9.38;7.28;;;7.30;99.90;;;;;;5996544;23;20692;-75
2022/11/25 10:03:57;;;;;;;6.82;6.13;;;7.30;99.90;;;;;;6003095;23;20578;-75
2022/11/25 10:06:26;;;;;;;9.40;6.63;;;7.20;99.90;;;;;;6003744;23;20321;-75
2022/11/25 10:08:57;;;;;;;8.00;6.50;;;7.40;99.90;;;;;;6000883;23;20230;-75
2022/11/25 10:11:35;;;;;;;8.65;6.82;;;7.60;99.90;;;;;;6004754;23;20626;-75
2022/11/25 10:14:10;;;;;;;8.15;6.35;;;7.80;99.90;;;;;;6000954;23;20268;-75
2022/11/25 10:16:48;;;;;;;9.18;6.90;;;7.80;99.90;;;;;;6002415;23;20551;-75
2022/11/25 10:19:24;;;;;;;8.27;6.53;;;7.70;99.90;;;;;;5998566;23;20187;-75
2022/11/25 10:21:52;;;;;;;8.23;6.32;;;7.80;99.90;;;;;;6000242;23;20597;-75
2022/11/25 10:24:20;;;;;;;9.18;6.18;;;7.90;99.90;;;;;;5999881;23;20587;-75
2022/11/25 10:26:57;;;;;;;6.82;5.85;;;7.90;99.90;;;;;;6004297;23;20245;-76
2022/11/25 10:29:27;;;;;;;6.68;5.72;;;7.90;99.90;;;;;;6002453;23;20646;-75
2022/11/25 10:32:04;;;;;;;9.75;7.10;;;8.00;99.90;;;;;;6002274;23;20253;-75
2022/11/25 10:34:37;;;;;;;6.82;6.13;;;8.00;99.90;;;;;;5988045;23;20200;-76
2022/11/25 10:37:11;;;;;;;7.43;5.72;;;8.00;99.90;;;;;;6000088;23;20269;-75
2022/11/25 10:39:39;;;;;;;8.65;6.13;;;7.90;99.90;;;;;;5997359;23;20191;-75
2022/11/25 10:42:11;;;;;;;6.35;5.18;;;7.90;99.90;;;;;;5993053;23;20295;-75
2022/11/25 10:44:40;;;;;;;8.93;6.35;;;7.90;99.90;;;;;;6003031;23;20297;-75
2022/11/25 10:47:26;;;;;;;9.38;6.85;;;7.90;99.90;;;;;;6002524;23;20709;-76
2022/11/25 10:50:06;;;;;;;6.38;5.78;;;7.90;99.90;;;;;;6002455;23;20590;-75
2022/11/25 10:52:44;;;;;;;8.50;6.18;;;7.90;99.90;;;;;;5996938;23;20211;-75
2022/11/25 10:55:15;;;;;;;6.70;6.00;;;8.00;99.90;;;;;;5997377;23;20187;-75
2022/11/25 10:57:42;;;;;;;8.85;6.05;;;8.10;99.90;;;;;;5999584;23;20211;-76
2022/11/25 11:00:25;;;;;;;6.80;5.80;;;8.20;99.90;;;;;;6001688;23;20188;-75
2022/11/25 11:02:55;;;;;;;6.00;5.30;;;8.30;99.90;;;;;;5994469;23;20208;-75
2022/11/25 11:05:24;;;;;;;9.07;5.57;;;8.40;99.90;;;;;;6002033;23;20193;-75
2022/11/25 11:08:18;;;;;;;12.50;6.30;;;8.50;99.90;;;;;;6001436;23;20197;-75
2022/11/25 11:10:47;;;;;;;6.20;5.60;;;8.70;99.90;;;;;;6001762;23;20699;-75
2022/11/25 11:13:24;;;;;;;6.10;5.50;;;8.80;99.90;;;;;;5997667;23;20273;-75
2022/11/25 11:15:52;;;;;;;7.20;5.60;;;8.90;99.90;;;;;;5995229;23;20198;-76
2022/11/25 11:18:30;;;;;;;6.78;5.28;;;8.90;99.90;;;;;;6002529;23;20198;-75
2022/11/25 11:20:59;;;;;;;7.20;5.78;;;9.00;99.90;;;;;;5998678;23;20193;-75
2022/11/25 11:23:29;;;;;;;7.75;5.22;;;9.00;99.90;;;;;;6000900;23;20269;-75
2022/11/25 11:26:02;;;;;;;8.13;5.80;;;9.10;99.90;;;;;;5995316;23;20236;-76
2022/11/25 11:28:38;;;;;;;7.32;5.38;;;9.10;99.90;;;;;;6002197;23;20283;-76
2022/11/25 11:31:14;;;;;;;8.35;7.55;;;9.20;99.90;;;;;;6004092;23;20276;-75
2022/11/25 11:33:53;;;;;;;7.68;6.80;;;9.20;99.90;;;;;;6000456;23;20274;-74
2022/11/25 11:36:34;;;;;;;7.75;7.05;;;9.20;99.90;;;;;;5995305;23;20192;-75
2022/11/25 11:39:23;;;;;;;8.15;7.07;;;9.20;99.90;;;;;;6000293;23;20524;-75
2022/11/25 11:41:56;;;;;;;9.48;6.57;;;9.10;99.90;;;;;;6003715;23;20190;-75
2022/11/25 11:44:34;;;;;;;6.43;5.07;;;9.10;99.90;;;;;;6001719;23;20268;-75
2022/11/25 11:47:13;;;;;;;5.63;5.13;;;9.10;99.90;;;;;;6006985;23;20584;-76
2022/11/25 11:50:03;;;;;;;7.75;4.40;;;9.00;99.90;;;;;;6007549;23;20221;-75
2022/11/25 11:52:43;;;;;;;8.27;4.65;;;9.00;99.90;;;;;;6011089;23;20193;-75
2022/11/25 11:55:54;;;;;;;4.68;4.25;;;9.00;99.90;;;;;;5985842;24;20201;-75
2022/11/25 11:58:35;;;;;;;5.18;4.13;;;9.00;99.90;;;;;;5951728;24;20202;-74
2022/11/25 12:01:11;;;;;;;6.53;3.90;;;9.00;99.90;;;;;;5953020;24;20197;-75
2022/11/25 12:03:44;;;;;;;5.75;4.00;;;9.00;99.90;;;;;;5982294;23;20208;-75
2022/11/25 12:06:13;;;;;;;5.00;3.65;;;9.00;99.90;;;;;;6004476;23;20214;-76
2022/11/25 12:08:49;;;;;;;5.10;3.30;;;9.00;99.90;;;;;;6004334;23;20206;-75
2022/11/25 12:11:22;;;;;;;5.10;3.80;;;9.00;99.90;;;;;;6004935;23;20577;-75
2022/11/25 12:13:54;;;;;;;5.25;2.88;;;9.00;99.90;;;;;;6004449;23;20651;-74
2022/11/25 12:16:27;;;;;;;4.78;3.60;;;8.90;99.90;;;;;;6008808;23;20217;-74
2022/11/25 12:18:56;;;;;;;3.70;3.38;;;8.90;99.90;;;;;;6012303;23;20197;-75
2022/11/25 12:21:40;;;;;;;6.00;3.58;;;8.90;99.90;;;;;;6010064;23;20780;-74
2022/11/25 12:24:14;;;;;;;6.35;3.92;;;8.80;99.90;;;;;;6011192;23;20273;-73
2022/11/25 12:26:49;;;;;;;6.05;3.90;;;8.80;99.90;;;;;;6015215;23;20210;-74
2022/11/25 12:29:25;;;;;;;4.93;3.90;;;8.80;99.90;;;;;;5999719;23;20276;-74
2022/11/25 12:31:57;;;;;;;4.68;3.90;;;8.80;99.90;;;;;;5992369;23;20267;-75
2022/11/25 12:34:34;;;;;;;4.95;3.92;;;8.80;99.90;;;;;;5997671;23;20263;-75
2022/11/25 12:37:10;;;;;;;4.50;4.10;;;8.80;99.90;;;;;;6000263;23;20599;-75
2022/11/25 12:39:44;;;;;;;3.97;3.67;;;8.80;99.90;;;;;;5991016;23;20221;-75
2022/11/25 12:42:16;;;;;;;3.72;3.20;;;8.80;99.90;;;;;;6000931;23;20204;-75
2022/11/25 12:44:58;;;;;;;7.25;4.03;;;8.80;99.90;;;;;;6002546;23;20224;-74
2022/11/25 12:47:26;;;;;;;6.25;3.92;;;8.80;99.90;;;;;;6000262;23;20222;-75
2022/11/25 12:49:55;;;;;;;5.25;4.38;;;8.80;99.90;;;;;;6002417;23;20305;-75
2022/11/25 12:52:42;;;;;;;4.90;3.72;;;8.80;99.90;;;;;;6001740;23;20688;-74
2022/11/25 12:55:17;;;;;;;7.50;4.97;;;8.80;99.90;;;;;;5999942;23;20224;-75
2022/11/25 12:58:15;;;;;;;7.57;4.95;;;8.80;99.90;;;;;;6002640;23;20188;-74
2022/11/25 13:01:16;;;;;;;6.35;4.80;;;8.80;99.90;;;;;;5992271;23;20214;-75
2022/11/25 13:04:03;;;;;;;5.93;3.90;;;8.80;99.90;;;;;;5954256;23;20657;-75
2022/11/25 13:06:56;;;;;;;4.72;3.42;;;8.70;99.90;;;;;;5987638;23;20210;-75
2022/11/25 13:10:01;;;;;;;5.70;3.65;;;8.80;99.90;;;;;;5991738;23;20651;-76
2022/11/25 13:12:41;;;;;;;5.97;4.32;;;8.80;99.90;;;;;;5998152;23;20225;-75
2022/11/25 13:15:19;;;;;;;5.65;4.50;;;8.80;99.90;;;;;;6011775;23;20202;-75